Home   Weather   Vietnam   Hanoi   Past weeks
Flag for Vietnam

Past Weather in Hanoi, Vietnam — Yesterday and Last 2 Weeks

Currently: 63 °F. Clear. (Weather station: Ha Noi Airport, Vietnam). See more current weather

Past Weather in Hanoi — Graph

°F

Hanoi Temperature Yesterday

Maximum temperature yesterday: 70 °F (at 2:30 pm)
Minimum temperature yesterday: 48 °F (at 3:30 am)
Average temperature yesterday: 59 °F

High & Low Weather Summary for the Past Weeks

 TemperatureHumidityPressure
High73 °F (Jan 21, 2:30 pm)94% (Jan 22, 2:00 am)30.42 "Hg (Jan 22, 2:00 am)
Low45 °F (Jan 25, 6:00 am)20% (Jan 29, 1:00 pm)29.89 "Hg (Jan 15, 1:00 pm)
Average60 °F61%30.16 "Hg
* Reported Jan 15 9:00 am — Jan 30 9:30 am, Hanoi. Weather by CustomWeather, © 2023

Note: Actual official high and low records may vary slightly from our data, if they occured in-between our weather recording intervals... More about our weather records

Hanoi Weather History for the Previous 24 Hours

Scroll right to see more
 ConditionsComfort  
Time TempWeatherWind HumidityBarometerVisibility
9:30 am
Mon, Jan 30
59 °FClear.1 mph55%30.30 "Hg4 mi
9:00 am57 °FClear.1 mph59%30.27 "Hg4 mi
8:30 am54 °FFog.1 mph72%30.27 "Hg3 mi
8:00 am52 °FFog.2 mph77%30.27 "Hg3 mi
6:30 am48 °FFog.3 mph76%30.24 "Hg3 mi
6:00 am48 °FClear.2 mph82%30.24 "Hg4 mi
5:30 am48 °FClear.No wind76%30.24 "Hg4 mi
5:00 am48 °FClear.3 mph76%30.21 "Hg4 mi
4:30 am48 °FClear.2 mph82%30.21 "Hg4 mi
4:00 am48 °FClear.2 mph76%30.21 "Hg4 mi
3:30 am48 °FClear.3 mph82%30.21 "Hg4 mi
3:00 am50 °FClear.3 mph76%30.21 "Hg4 mi
2:30 am52 °FClear.1 mph77%30.21 "Hg4 mi
2:00 am52 °FClear.3 mph77%30.21 "Hg4 mi
1:00 am54 °FClear.3 mph67%30.21 "Hg4 mi
12:30 am54 °FPassing clouds.3 mph67%30.21 "Hg4 mi
12:00 am54 °FClear.3 mph67%30.24 "Hg4 mi
11:00 pm
Sun, Jan 29
54 °FClear.5 mph63%30.24 "Hg4 mi
10:30 pm54 °FClear.5 mph67%30.24 "Hg5 mi
10:00 pm57 °FClear.1 mph55%30.21 "Hg5 mi
9:00 pm57 °FClear.3 mph51%30.21 "Hg5 mi
8:30 pm59 °FClear.3 mph48%30.21 "Hg4 mi
8:00 pm59 °FClear.3 mph51%30.21 "Hg4 mi
7:00 pm63 °FClear.5 mph37%30.18 "Hg6 mi
6:30 pm64 °FClear.6 mph34%30.18 "Hg10 mi
6:00 pm63 °FClear.6 mph37%30.18 "Hg6 mi
5:30 pm66 °FPassing clouds.6 mph30%30.15 "HgN/A
5:00 pm68 °FPassing clouds.6 mph28%30.15 "HgN/A
4:30 pm68 °FSunny.8 mph28%30.15 "Hg10 mi
4:00 pm70 °FPassing clouds.8 mph27%30.15 "HgN/A
3:30 pm70 °FPassing clouds.6 mph25%30.15 "HgN/A
3:00 pm70 °FPassing clouds.5 mph20%30.18 "HgN/A
2:30 pm70 °FPassing clouds.7 mph20%30.18 "HgN/A
2:00 pm68 °FPassing clouds.6 mph20%30.21 "HgN/A
1:00 pm68 °FPassing clouds.7 mph20%30.24 "HgN/A
12:30 pm66 °FPassing clouds.6 mph22%30.27 "HgN/A
12:00 pm66 °FSunny.5 mph22%30.30 "Hg10 mi
11:30 am64 °FPassing clouds.6 mph24%30.33 "HgN/A
11:00 am63 °FPassing clouds.6 mph25%30.36 "HgN/A
Weather by CustomWeather, © 2023

See weather overview